createdAt,value
2023-02-23T00:01:48.826Z,21.08
2023-02-23T00:04:16.163Z,20.67
2023-02-23T00:06:43.221Z,20.98
2023-02-23T00:09:22.877Z,23.60
2023-02-23T00:11:51.734Z,27.40
2023-02-23T00:14:19.410Z,21.70
2023-02-23T00:16:46.757Z,19.23
2023-02-23T00:19:14.404Z,17.52
2023-02-23T00:21:42.342Z,16.35
2023-02-23T00:24:11.952Z,16.77
2023-02-23T00:26:40.332Z,17.52
2023-02-23T00:29:11.326Z,16.35
2023-02-23T00:31:39.044Z,18.45
2023-02-23T00:34:07.537Z,18.95
2023-02-23T00:36:35.992Z,18.15
2023-02-23T00:39:18.585Z,20.20
2023-02-23T00:41:46.785Z,21.33
2023-02-23T00:44:15.521Z,22.00
2023-02-23T00:46:43.849Z,20.75
2023-02-23T00:49:13.569Z,20.08
2023-02-23T00:51:42.330Z,20.95
2023-02-23T00:54:12.962Z,19.50
2023-02-23T00:56:40.954Z,19.50
2023-02-23T00:59:08.079Z,20.42
2023-02-23T01:01:37.591Z,19.25
2023-02-23T01:04:05.371Z,18.98
2023-02-23T01:06:32.540Z,20.20
2023-02-23T01:08:59.714Z,18.35
2023-02-23T01:11:29.337Z,20.25
2023-02-23T01:13:58.983Z,18.85
2023-02-23T01:16:32.288Z,20.10
2023-02-23T01:19:01.614Z,19.70
2023-02-23T01:21:32.853Z,20.00
2023-02-23T01:24:01.270Z,21.10
2023-02-23T01:26:34.498Z,19.42
2023-02-23T01:29:12.483Z,21.73
2023-02-23T01:31:42.110Z,22.10
2023-02-23T01:34:12.082Z,22.27
2023-02-23T01:36:41.085Z,20.55
2023-02-23T01:39:12.969Z,20.15
2023-02-23T01:41:43.319Z,20.25
2023-02-23T01:44:14.015Z,21.13
2023-02-23T01:46:44.000Z,21.80
2023-02-23T01:49:16.468Z,23.40
2023-02-23T01:51:49.728Z,22.35
2023-02-23T01:54:23.623Z,22.05
2023-02-23T01:56:58.554Z,23.27
2023-02-23T01:59:36.602Z,23.50
2023-02-23T02:02:05.561Z,23.40
2023-02-23T02:04:44.984Z,21.98
2023-02-23T02:07:15.995Z,20.50
2023-02-23T02:10:04.774Z,20.23
2023-02-23T02:12:32.393Z,19.90
2023-02-23T02:15:02.912Z,20.20
2023-02-23T02:17:53.537Z,19.05
2023-02-23T02:20:52.515Z,20.42
2023-02-23T02:23:30.888Z,19.90
2023-02-23T02:26:16.166Z,22.35
2023-02-23T02:28:59.710Z,22.95
2023-02-23T02:31:38.383Z,24.17
2023-02-23T02:34:42.775Z,24.23
2023-02-23T02:37:18.874Z,23.25
2023-02-23T02:40:17.159Z,22.70
2023-02-23T02:43:12.013Z,22.40
2023-02-23T02:46:02.342Z,23.55
2023-02-23T02:48:38.786Z,24.17
2023-02-23T02:51:18.753Z,24.17
2023-02-23T02:53:50.593Z,25.35
2023-02-23T02:56:20.552Z,25.15
2023-02-23T02:58:50.533Z,23.70
2023-02-23T03:01:38.371Z,21.08
2023-02-23T03:04:45.635Z,23.08
2023-02-23T03:07:43.125Z,21.30
2023-02-23T03:10:47.728Z,21.30
2023-02-23T03:14:07.583Z,21.23
2023-02-23T03:16:58.381Z,21.35
2023-02-23T03:19:52.029Z,20.63
2023-02-23T03:22:48.190Z,22.65
2023-02-23T03:25:45.223Z,23.35
2023-02-23T03:28:39.914Z,21.88
2023-02-23T03:31:40.670Z,24.85
2023-02-23T03:34:32.019Z,24.67
2023-02-23T03:37:42.732Z,24.83
2023-02-23T03:40:43.565Z,26.50
2023-02-23T03:43:37.401Z,25.90
2023-02-23T03:46:28.172Z,23.92
2023-02-23T03:49:18.266Z,23.33
2023-02-23T03:52:09.695Z,21.77
2023-02-23T03:55:03.968Z,23.77
2023-02-23T03:57:55.077Z,22.55
2023-02-23T04:00:50.433Z,23.67
2023-02-23T04:03:40.345Z,24.42
2023-02-23T04:06:31.887Z,25.90
2023-02-23T04:09:22.859Z,24.55
2023-02-23T04:12:17.763Z,24.88
2023-02-23T04:14:56.523Z,22.05
2023-02-23T04:17:28.257Z,23.35
2023-02-23T04:19:56.888Z,24.52
2023-02-23T04:22:24.860Z,22.75
2023-02-23T04:24:52.610Z,23.63
2023-02-23T04:27:20.769Z,23.05
2023-02-23T04:29:48.021Z,24.35
2023-02-23T04:32:17.321Z,26.45
2023-02-23T04:34:44.790Z,23.75
2023-02-23T04:37:12.799Z,24.63
2023-02-23T04:39:40.406Z,25.45
2023-02-23T04:42:07.956Z,24.52
2023-02-23T04:44:35.249Z,25.15
2023-02-23T04:47:02.598Z,24.38
2023-02-23T04:49:30.173Z,26.60
2023-02-23T04:51:57.511Z,29.02
2023-02-23T04:54:24.875Z,28.35
2023-02-23T04:56:52.374Z,27.13
2023-02-23T04:59:19.780Z,25.73
2023-02-23T05:01:47.263Z,24.88
2023-02-23T05:04:14.430Z,25.45
2023-02-23T05:06:43.056Z,24.90
2023-02-23T05:09:10.357Z,28.00
2023-02-23T05:11:38.221Z,28.65
2023-02-23T05:14:05.641Z,26.88
2023-02-23T05:16:33.168Z,26.80
2023-02-23T05:19:00.352Z,27.50
2023-02-23T05:21:27.690Z,26.30
2023-02-23T05:23:54.776Z,26.05
2023-02-23T05:26:22.295Z,30.30
2023-02-23T05:28:49.479Z,31.63
2023-02-23T05:31:17.934Z,31.40
2023-02-23T05:33:45.958Z,29.45
2023-02-23T05:36:16.743Z,29.02
2023-02-23T05:38:45.923Z,28.80
2023-02-23T05:41:16.488Z,28.02
2023-02-23T05:43:43.973Z,31.40
2023-02-23T05:46:15.513Z,27.92
2023-02-23T05:48:43.048Z,27.95
2023-02-23T05:51:12.608Z,25.77
2023-02-23T05:53:40.327Z,24.90
2023-02-23T05:56:11.948Z,27.48
2023-02-23T05:58:39.016Z,27.33
2023-02-23T06:01:06.235Z,27.60
2023-02-23T06:03:34.653Z,27.90
2023-02-23T06:06:02.159Z,29.25
2023-02-23T06:08:29.387Z,27.88
2023-02-23T06:10:56.995Z,28.38
2023-02-23T06:13:24.087Z,28.60
2023-02-23T06:15:51.420Z,30.80
2023-02-23T06:18:18.710Z,29.65
2023-02-23T06:20:47.089Z,29.88
2023-02-23T06:23:15.880Z,29.58
2023-02-23T06:25:44.855Z,28.17
2023-02-23T06:28:12.537Z,28.73
2023-02-23T06:30:39.987Z,27.77
2023-02-23T06:33:07.882Z,28.80
2023-02-23T06:35:35.737Z,29.70
2023-02-23T06:38:04.746Z,29.65
2023-02-23T06:40:32.045Z,30.50
2023-02-23T06:42:59.703Z,31.70
2023-02-23T06:45:27.329Z,29.40
2023-02-23T06:47:54.491Z,31.38
2023-02-23T06:50:22.966Z,28.85
2023-02-23T06:52:50.466Z,28.92
2023-02-23T06:55:18.468Z,29.05
2023-02-23T06:57:48.674Z,31.20
2023-02-23T07:00:17.987Z,29.35
2023-02-23T07:02:47.142Z,29.48
2023-02-23T07:05:14.282Z,28.42
2023-02-23T07:07:41.870Z,27.73
2023-02-23T07:10:09.806Z,27.90
2023-02-23T07:12:37.319Z,27.45
2023-02-23T07:15:04.861Z,28.08
2023-02-23T07:17:32.127Z,28.88
2023-02-23T07:19:59.574Z,27.80
2023-02-23T07:22:30.290Z,26.40
2023-02-23T07:24:58.245Z,28.85
2023-02-23T07:27:25.986Z,29.58
2023-02-23T07:29:53.492Z,28.98
2023-02-23T07:32:20.822Z,29.55
2023-02-23T07:34:48.162Z,29.75
2023-02-23T07:37:15.366Z,29.35
2023-02-23T07:39:42.878Z,28.42
2023-02-23T07:42:09.970Z,28.27
2023-02-23T07:44:38.279Z,28.25
2023-02-23T07:47:05.969Z,29.10
2023-02-23T07:49:34.429Z,28.48
2023-02-23T07:52:01.652Z,27.70
2023-02-23T07:54:29.588Z,26.90
2023-02-23T07:56:57.911Z,26.85
2023-02-23T07:59:25.387Z,25.58
2023-02-23T08:01:53.142Z,27.17
2023-02-23T08:04:20.703Z,28.25
2023-02-23T08:06:48.371Z,26.42
2023-02-23T08:09:15.676Z,26.58
2023-02-23T08:11:43.189Z,24.25
2023-02-23T08:14:10.850Z,25.38
2023-02-23T08:16:38.337Z,26.55
2023-02-23T08:19:05.469Z,27.20
2023-02-23T08:21:32.900Z,26.65
2023-02-23T08:24:00.281Z,26.63
2023-02-23T08:26:28.315Z,27.10
2023-02-23T08:28:55.830Z,26.75
2023-02-23T08:31:26.470Z,26.30
2023-02-23T08:33:54.237Z,25.85
2023-02-23T08:36:21.680Z,26.30
2023-02-23T08:38:49.279Z,26.92
2023-02-23T08:41:17.476Z,27.65
2023-02-23T08:43:44.929Z,27.02
2023-02-23T08:46:12.882Z,27.92
2023-02-23T08:48:40.777Z,28.83
2023-02-23T08:51:09.286Z,26.52
2023-02-23T08:53:36.781Z,27.80
2023-02-23T08:56:06.327Z,26.70
2023-02-23T08:58:35.555Z,26.83
2023-02-23T09:01:04.183Z,27.90
2023-02-23T09:03:32.235Z,26.83
2023-02-23T09:06:08.633Z,28.10
2023-02-23T09:08:35.899Z,27.92
2023-02-23T09:11:03.625Z,27.95
2023-02-23T09:13:30.778Z,27.08
2023-02-23T09:15:58.500Z,27.92
2023-02-23T09:18:28.100Z,28.65
2023-02-23T09:20:55.669Z,28.27
2023-02-23T09:23:24.303Z,27.55
2023-02-23T09:25:51.370Z,29.48
2023-02-23T09:28:20.337Z,27.67
2023-02-23T09:30:48.527Z,27.55
2023-02-23T09:33:15.723Z,28.80
2023-02-23T09:35:43.382Z,29.92
2023-02-23T09:38:10.519Z,30.30
2023-02-23T09:40:47.698Z,29.63
2023-02-23T09:43:15.426Z,29.13
2023-02-23T09:45:49.078Z,27.95
2023-02-23T09:48:19.730Z,20.03
2023-02-23T09:50:52.422Z,28.25
2023-02-23T09:53:34.166Z,27.55
2023-02-23T09:56:07.269Z,26.13
2023-02-23T09:58:35.777Z,28.25
2023-02-23T10:01:22.669Z,25.55
2023-02-23T10:03:55.583Z,25.58
2023-02-23T10:06:23.692Z,26.77
2023-02-23T10:08:51.810Z,26.35
2023-02-23T10:11:38.702Z,27.25
2023-02-23T10:14:46.737Z,27.73
2023-02-23T10:17:27.521Z,28.33
2023-02-23T10:20:24.828Z,27.92
2023-02-23T10:22:57.228Z,27.50
2023-02-23T10:25:28.978Z,28.80
2023-02-23T10:27:58.495Z,27.80
2023-02-23T10:30:29.389Z,28.45
2023-02-23T10:33:05.427Z,27.48
2023-02-23T10:35:33.855Z,29.05
2023-02-23T10:38:02.545Z,26.23
2023-02-23T10:40:33.329Z,28.20
2023-02-23T10:43:03.166Z,29.67
2023-02-23T10:45:38.209Z,30.38
2023-02-23T10:48:08.402Z,29.52
2023-02-23T10:50:38.216Z,30.02
2023-02-23T10:53:16.689Z,29.50
2023-02-23T10:55:59.965Z,30.80
2023-02-23T10:58:28.841Z,29.02
2023-02-23T11:00:58.719Z,29.73
2023-02-23T11:03:26.921Z,30.38
2023-02-23T11:05:54.762Z,30.42
2023-02-23T11:08:29.570Z,30.17
2023-02-23T11:11:00.719Z,31.55
2023-02-23T11:13:33.639Z,31.17
2023-02-23T11:16:03.292Z,31.55
2023-02-23T11:18:30.818Z,32.47
2023-02-23T11:20:58.686Z,31.85
2023-02-23T11:23:29.743Z,32.20
2023-02-23T11:26:01.239Z,32.00
2023-02-23T11:28:37.911Z,32.47
2023-02-23T11:31:19.016Z,33.28
2023-02-23T11:33:47.393Z,33.38
2023-02-23T11:36:25.680Z,33.40
2023-02-23T11:39:05.325Z,34.03
2023-02-23T11:41:35.413Z,35.50
2023-02-23T11:44:06.100Z,34.35
2023-02-23T11:46:38.114Z,34.15
2023-02-23T11:49:08.999Z,34.38
2023-02-23T11:51:40.409Z,34.10
2023-02-23T11:54:19.580Z,32.83
2023-02-23T11:56:55.080Z,33.78
2023-02-23T11:59:31.974Z,33.65
2023-02-23T12:02:23.208Z,34.30
2023-02-23T12:04:54.718Z,31.08
2023-02-23T12:07:34.978Z,33.83
2023-02-23T12:10:27.984Z,33.10
2023-02-23T12:13:15.257Z,31.60
2023-02-23T12:15:51.945Z,31.15
2023-02-23T12:18:26.900Z,31.42
2023-02-23T12:20:57.942Z,30.65
2023-02-23T12:23:30.119Z,31.00
2023-02-23T12:26:01.317Z,31.05
2023-02-23T12:28:34.407Z,30.13
2023-02-23T12:31:17.929Z,31.15
2023-02-23T12:33:50.249Z,30.27
2023-02-23T12:36:38.952Z,30.73
2023-02-23T12:39:32.990Z,31.08
2023-02-23T12:42:24.937Z,29.63
2023-02-23T12:44:56.070Z,29.17
2023-02-23T12:48:02.978Z,30.90
2023-02-23T12:50:33.983Z,29.05
2023-02-23T12:53:12.562Z,27.50
2023-02-23T12:55:52.302Z,29.80
2023-02-23T12:58:28.583Z,29.13
2023-02-23T13:01:12.972Z,27.58
2023-02-23T13:04:20.170Z,28.92
2023-02-23T13:07:05.370Z,29.15
2023-02-23T13:10:01.430Z,29.42
2023-02-23T13:12:53.467Z,30.35
2023-02-23T13:15:41.003Z,30.17
2023-02-23T13:18:36.324Z,30.27
2023-02-23T13:23:41.261Z,29.63
2023-02-23T13:26:19.659Z,31.52
2023-02-23T13:28:46.751Z,31.80
2023-02-23T13:31:23.400Z,31.75
2023-02-23T13:33:53.420Z,31.15
2023-02-23T13:36:22.233Z,32.97
2023-02-23T13:39:02.980Z,31.50
2023-02-23T13:41:38.019Z,33.10
2023-02-23T13:44:19.225Z,33.75
2023-02-23T13:46:50.926Z,32.75
2023-02-23T13:49:42.507Z,32.97
2023-02-23T13:52:29.725Z,33.83
2023-02-23T13:55:03.350Z,33.65
2023-02-23T13:57:32.907Z,33.90
2023-02-23T14:00:00.855Z,34.25
2023-02-23T14:02:41.315Z,35.67
2023-02-23T14:05:26.222Z,35.28
2023-02-23T14:08:05.305Z,36.58
2023-02-23T14:10:47.780Z,36.70
2023-02-23T14:13:16.435Z,37.47
2023-02-23T14:15:50.128Z,38.13
2023-02-23T14:18:19.312Z,39.10
2023-02-23T14:20:52.273Z,37.97
2023-02-23T14:23:20.467Z,39.13
2023-02-23T14:25:52.475Z,39.22
2023-02-23T14:28:33.730Z,40.42
2023-02-23T14:31:07.147Z,41.28
2023-02-23T14:33:38.592Z,40.80
2023-02-23T14:36:25.644Z,41.30
2023-02-23T14:39:16.725Z,41.83
2023-02-23T14:42:07.045Z,41.90
2023-02-23T14:44:41.727Z,42.28
2023-02-23T14:47:20.333Z,42.97
2023-02-23T14:49:56.431Z,43.33
2023-02-23T14:52:37.235Z,45.08
2023-02-23T14:55:12.819Z,44.33
2023-02-23T14:57:42.791Z,44.33
2023-02-23T15:00:28.413Z,44.63
2023-02-23T15:02:59.265Z,46.05
2023-02-23T15:05:30.109Z,44.40
2023-02-23T15:08:01.878Z,45.40
2023-02-23T15:10:35.590Z,47.40
2023-02-23T15:13:11.520Z,46.20
2023-02-23T15:15:45.479Z,46.70
2023-02-23T15:18:24.675Z,47.13
2023-02-23T15:20:52.118Z,46.20
2023-02-23T15:23:20.467Z,44.22
2023-02-23T15:25:51.294Z,46.05
2023-02-23T15:28:27.500Z,48.05
2023-02-23T15:31:01.112Z,45.80
2023-02-23T15:33:29.249Z,47.95
2023-02-23T15:36:20.805Z,46.97
2023-02-23T15:38:52.182Z,45.85
2023-02-23T15:41:39.210Z,44.28
2023-02-23T15:44:38.354Z,45.00
2023-02-23T15:47:21.815Z,44.58
2023-02-23T15:49:50.489Z,44.35
2023-02-23T15:52:23.343Z,45.10
2023-02-23T15:55:01.772Z,46.58
2023-02-23T15:57:34.165Z,46.60
2023-02-23T16:00:16.719Z,48.63
2023-02-23T16:02:45.027Z,49.95
2023-02-23T16:05:25.778Z,49.47
2023-02-23T16:08:05.528Z,51.15
2023-02-23T16:10:47.147Z,48.72
2023-02-23T16:13:19.987Z,50.42
2023-02-23T16:15:49.119Z,50.15
2023-02-23T16:18:23.409Z,48.60
2023-02-23T16:20:57.627Z,50.35
2023-02-23T16:23:35.651Z,51.08
2023-02-23T16:26:11.988Z,50.45
2023-02-23T16:28:43.746Z,47.55
2023-02-23T16:31:13.548Z,49.03
2023-02-23T16:33:51.661Z,51.20
2023-02-23T16:36:35.079Z,50.42
2023-02-23T16:39:05.031Z,50.55
2023-02-23T16:41:34.236Z,48.45
2023-02-23T16:44:04.348Z,48.20
2023-02-23T16:46:54.011Z,48.63
2023-02-23T16:49:23.659Z,49.13
2023-02-23T16:51:51.520Z,48.63
2023-02-23T16:54:19.326Z,51.47
2023-02-23T16:56:47.720Z,51.33
2023-02-23T16:59:18.841Z,49.58
2023-02-23T17:01:46.778Z,49.75
2023-02-23T17:04:15.542Z,48.80
2023-02-23T17:06:43.575Z,48.70
2023-02-23T17:09:12.743Z,49.80
2023-02-23T17:11:42.522Z,52.03
2023-02-23T17:14:19.805Z,50.13
2023-02-23T17:16:47.040Z,48.83
2023-02-23T17:19:15.987Z,51.53
2023-02-23T17:21:43.099Z,48.90
2023-02-23T17:24:10.624Z,47.75
2023-02-23T17:26:39.721Z,48.97
2023-02-23T17:29:07.106Z,50.05
2023-02-23T17:31:34.934Z,49.05
2023-02-23T17:34:02.575Z,47.72
2023-02-23T17:36:29.916Z,50.72
2023-02-23T17:38:58.944Z,51.03
2023-02-23T17:41:27.286Z,50.42
2023-02-23T17:43:55.112Z,50.88
2023-02-23T17:46:24.419Z,50.50
2023-02-23T17:48:52.435Z,49.70
2023-02-23T17:51:21.858Z,50.17
2023-02-23T17:53:49.713Z,49.13
2023-02-23T17:56:18.140Z,50.13
2023-02-23T17:58:45.875Z,48.83
2023-02-23T18:01:14.172Z,51.63
2023-02-23T18:03:41.569Z,51.47
2023-02-23T18:06:11.500Z,50.83
2023-02-23T18:08:41.047Z,49.72
2023-02-23T18:11:09.317Z,50.40
2023-02-23T18:13:37.460Z,50.47
2023-02-23T18:16:09.688Z,47.08
2023-02-23T18:18:41.074Z,49.05
2023-02-23T18:21:19.681Z,49.75
2023-02-23T18:23:48.187Z,49.85
2023-02-23T18:26:18.877Z,51.00
2023-02-23T18:28:46.860Z,50.75
2023-02-23T18:31:16.608Z,51.70
2023-02-23T18:33:44.944Z,50.30
2023-02-23T18:36:31.660Z,50.85
2023-02-23T18:39:00.833Z,50.35
2023-02-23T18:41:30.949Z,49.58
2023-02-23T18:44:00.824Z,54.22
2023-02-23T18:46:28.102Z,54.75
2023-02-23T18:48:55.514Z,52.42
2023-02-23T18:51:23.348Z,54.20
2023-02-23T18:53:51.702Z,53.53
2023-02-23T18:56:28.013Z,52.30
2023-02-23T18:58:59.028Z,51.40
2023-02-23T19:01:28.907Z,55.33
2023-02-23T19:03:59.532Z,52.28
2023-02-23T19:06:27.458Z,52.83
2023-02-23T19:08:59.484Z,57.05
2023-02-23T19:11:30.261Z,54.08
2023-02-23T19:14:00.575Z,54.53
2023-02-23T19:16:33.481Z,50.15
2023-02-23T19:19:02.380Z,50.83
2023-02-23T19:21:30.071Z,51.40
2023-02-23T19:23:57.960Z,52.72
2023-02-23T19:26:26.883Z,51.08
2023-02-23T19:28:54.898Z,52.80
2023-02-23T19:31:26.055Z,47.65
2023-02-23T19:33:56.243Z,46.30
2023-02-23T19:36:30.057Z,46.97
2023-02-23T19:39:06.138Z,49.27
2023-02-23T19:41:34.738Z,48.47
2023-02-23T19:44:02.352Z,49.90
2023-02-23T19:46:30.087Z,48.22
2023-02-23T19:48:57.534Z,48.40
2023-02-23T19:51:25.638Z,47.90
2023-02-23T19:53:54.933Z,50.03
2023-02-23T19:56:25.082Z,49.58
2023-02-23T19:58:52.803Z,47.42
2023-02-23T20:01:23.078Z,51.53
2023-02-23T20:03:55.631Z,48.53
2023-02-23T20:06:27.870Z,48.25
2023-02-23T20:08:58.021Z,47.53
2023-02-23T20:11:25.954Z,44.22
2023-02-23T20:13:54.456Z,46.92
2023-02-23T20:16:22.128Z,43.95
2023-02-23T20:18:50.507Z,44.55
2023-02-23T20:21:23.454Z,44.55
2023-02-23T20:23:51.369Z,48.17
2023-02-23T20:26:22.022Z,47.20
2023-02-23T20:28:51.543Z,47.38
2023-02-23T20:31:22.667Z,51.78
2023-02-23T20:33:50.982Z,51.83
2023-02-23T20:36:20.721Z,51.35
2023-02-23T20:38:49.016Z,51.40
2023-02-23T20:41:18.165Z,49.85
2023-02-23T20:43:46.335Z,49.78
2023-02-23T20:46:16.107Z,52.30
2023-02-23T20:48:44.530Z,53.40
2023-02-23T20:51:15.607Z,55.00
2023-02-23T20:53:47.014Z,52.65
2023-02-23T20:56:17.432Z,54.55
2023-02-23T20:58:46.362Z,51.75
2023-02-23T21:01:16.453Z,51.40
2023-02-23T21:03:44.718Z,47.67
2023-02-23T21:06:12.089Z,47.50
2023-02-23T21:08:42.365Z,48.03
2023-02-23T21:11:10.794Z,44.10
2023-02-23T21:13:38.690Z,45.53
2023-02-23T21:16:07.035Z,46.03
2023-02-23T21:18:34.413Z,45.92
2023-02-23T21:21:10.032Z,48.25
2023-02-23T21:23:39.783Z,45.92
2023-02-23T21:26:07.868Z,48.45
2023-02-23T21:28:36.374Z,48.45
2023-02-23T21:31:04.336Z,47.88
2023-02-23T21:33:31.875Z,49.60
2023-02-23T21:36:00.312Z,50.13
2023-02-23T21:38:27.591Z,51.78
2023-02-23T21:40:55.690Z,49.72
2023-02-23T21:43:24.283Z,46.65
2023-02-23T21:45:52.220Z,47.55
2023-02-23T21:48:20.300Z,47.15
2023-02-23T21:50:48.058Z,49.53
2023-02-23T21:53:15.611Z,48.13
2023-02-23T21:55:43.629Z,44.90
2023-02-23T21:58:12.276Z,46.35
2023-02-23T22:00:39.760Z,46.72
2023-02-23T22:03:08.559Z,43.92
2023-02-23T22:05:36.064Z,47.38
2023-02-23T22:08:03.540Z,46.80
2023-02-23T22:10:33.470Z,48.50
2023-02-23T22:13:01.225Z,48.50
2023-02-23T22:15:28.449Z,48.78
2023-02-23T22:17:56.667Z,49.47
2023-02-23T22:20:24.329Z,50.22
2023-02-23T22:22:52.477Z,50.00
2023-02-23T22:25:20.716Z,53.38
2023-02-23T22:27:48.502Z,54.15
2023-02-23T22:30:16.316Z,50.20
2023-02-23T22:32:44.433Z,49.38
2023-02-23T22:35:12.118Z,51.05
2023-02-23T22:37:40.129Z,50.72
2023-02-23T22:40:12.438Z,51.70
2023-02-23T22:42:40.138Z,50.40
2023-02-23T22:45:08.042Z,54.40
2023-02-23T22:47:36.109Z,51.42
2023-02-23T22:50:06.330Z,52.47
2023-02-23T22:52:35.202Z,52.97
2023-02-23T22:55:04.463Z,51.95
2023-02-23T22:57:31.755Z,53.33
2023-02-23T23:00:00.996Z,50.38
2023-02-23T23:02:32.285Z,50.83
2023-02-23T23:05:01.954Z,49.70
2023-02-23T23:07:31.277Z,50.75
2023-02-23T23:09:58.814Z,51.20
2023-02-23T23:12:28.776Z,49.78
2023-02-23T23:14:56.842Z,50.80
2023-02-23T23:17:24.536Z,52.90
2023-02-23T23:19:51.799Z,52.05
2023-02-23T23:22:20.332Z,53.83
2023-02-23T23:24:49.502Z,51.85
2023-02-23T23:27:16.642Z,52.08
2023-02-23T23:29:46.953Z,51.70
2023-02-23T23:32:17.996Z,52.42
2023-02-23T23:34:48.583Z,51.13
2023-02-23T23:37:17.402Z,49.72
2023-02-23T23:39:45.496Z,51.10
2023-02-23T23:42:13.178Z,51.70
2023-02-23T23:44:41.491Z,50.50
2023-02-23T23:47:09.174Z,50.92
2023-02-23T23:49:39.031Z,49.63
2023-02-23T23:52:07.204Z,48.70
2023-02-23T23:54:39.710Z,47.75
2023-02-23T23:57:07.500Z,48.42
2023-02-23T23:59:35.723Z,53.47
